Time;durP1;ratioP1;P1;durP2;ratioP2;P2;SDS_P1;SDS_P2;PMS_P1;PMS_P2;Temp;Humidity;BMP_temperature;BMP_pressure;BME280_temperature;BME280_humidity;BME280_pressure;Samples;Min_cycle;Max_cycle;Signal;HPM_P1;HPM_P2
2021/07/18 00:01:46;;;;;;;24.40;16.10;;;;;;;19.10;83.82;94244.73;1633159;86;21454;-57
2021/07/18 00:04:13;;;;;;;25.25;16.05;;;;;;;19.11;83.85;94246.25;1629114;86;21136;-55
2021/07/18 00:06:40;;;;;;;29.30;16.90;;;;;;;19.11;83.99;94246.87;1629012;87;21119;-56
2021/07/18 00:09:08;;;;;;;37.83;16.97;;;;;;;19.11;84.12;94244.08;1630206;86;21534;-55
2021/07/18 00:11:36;;;;;;;28.47;15.83;;;;;;;19.13;84.21;94249.27;1630101;87;21046;-56
2021/07/18 00:14:03;;;;;;;27.87;16.50;;;;;;;19.16;84.28;94245.48;1628601;87;21675;-55
2021/07/18 00:16:32;;;;;;;21.87;14.13;;;;;;;19.15;84.20;94245.33;1630812;86;20994;-55
2021/07/18 00:18:59;;;;;;;26.42;15.38;;;;;;;19.13;84.26;94242.30;1629115;86;21140;-55
2021/07/18 00:21:26;;;;;;;22.45;13.95;;;;;;;19.13;84.36;94237.34;1630425;88;21019;-55
2021/07/18 00:23:53;;;;;;;26.05;16.07;;;;;;;19.14;84.25;94224.92;1628396;86;20994;-55
2021/07/18 00:26:21;;;;;;;28.50;15.60;;;;;;;19.11;84.19;94233.70;1648034;85;21041;-55
2021/07/18 00:28:48;;;;;;;32.67;15.48;;;;;;;19.11;84.40;94232.30;1628890;86;21170;-56
2021/07/18 00:31:16;;;;;;;25.25;14.00;;;;;;;19.13;84.16;94233.94;1614796;87;21153;-56
2021/07/18 00:33:42;;;;;;;31.48;16.10;;;;;;;19.14;84.00;94238.23;1654235;85;21515;-56
2021/07/18 00:36:11;;;;;;;29.00;15.38;;;;;;;19.13;84.03;94238.12;1630264;86;21243;-57
2021/07/18 00:38:39;;;;;;;29.98;16.02;;;;;;;19.12;84.19;94242.80;1631199;87;21497;-56
2021/07/18 00:41:05;;;;;;;34.10;15.68;;;;;;;19.10;84.20;94232.80;1630116;87;21048;-56
2021/07/18 00:43:33;;;;;;;28.35;15.25;;;;;;;19.07;84.19;94238.79;1580466;88;21843;-57
2021/07/18 00:46:00;;;;;;;26.00;14.03;;;;;;;19.05;84.56;94241.30;1625494;87;21116;-56
2021/07/18 00:48:29;;;;;;;26.42;16.50;;;;;;;19.04;84.92;94241.19;1627652;87;21085;-55
2021/07/18 00:50:56;;;;;;;25.08;15.98;;;;;;;19.01;85.14;94242.88;1626865;87;21045;-56
2021/07/18 00:53:23;;;;;;;21.17;14.45;;;;;;;18.98;85.18;94246.04;1628658;87;21030;-56
2021/07/18 00:55:51;;;;;;;24.37;15.15;;;;;;;18.93;85.14;94246.05;1628659;87;21153;-56
2021/07/18 00:58:18;;;;;;;29.77;13.88;;;;;;;18.93;85.15;94239.86;1628489;88;21085;-56
2021/07/18 01:00:47;;;;;;;19.42;13.35;;;;;;;18.96;85.04;94236.03;1627048;87;21025;-55
2021/07/18 01:03:16;;;;;;;22.50;13.55;;;;;;;18.99;84.96;94239.84;1628112;88;21094;-55
2021/07/18 01:05:43;;;;;;;23.05;12.85;;;;;;;18.99;84.89;94238.45;1651226;86;21095;-55
2021/07/18 01:08:11;;;;;;;19.98;12.43;;;;;;;19.03;84.70;94238.28;1626970;88;21194;-56
2021/07/18 01:10:39;;;;;;;22.40;13.98;;;;;;;19.04;84.58;94234.22;1628889;87;21029;-54
2021/07/18 01:13:07;;;;;;;25.92;15.28;;;;;;;19.03;84.55;94231.31;1609227;88;21049;-55
2021/07/18 01:15:33;;;;;;;29.07;16.45;;;;;;;19.01;84.63;94232.46;1628734;87;21703;-54
2021/07/18 01:18:01;;;;;;;23.85;14.70;;;;;;;18.97;84.59;94234.77;1657645;85;20973;-54
2021/07/18 01:20:27;;;;;;;24.12;15.75;;;;;;;18.91;84.76;94236.83;1631200;88;21199;-55
2021/07/18 01:22:55;;;;;;;26.15;13.70;;;;;;;18.86;84.95;94238.23;1629944;87;21101;-56
2021/07/18 01:25:21;;;;;;;20.10;13.05;;;;;;;18.85;84.98;94236.07;1629545;86;21116;-55
2021/07/18 01:27:49;;;;;;;22.17;13.43;;;;;;;18.85;85.08;94243.04;1629332;87;21121;-55
2021/07/18 01:30:16;;;;;;;21.80;13.85;;;;;;;18.85;85.07;94245.83;1629040;86;21084;-55
2021/07/18 01:32:42;;;;;;;21.95;14.63;;;;;;;18.86;85.07;94243.16;1657783;85;21140;-54
2021/07/18 01:35:11;;;;;;;21.15;14.53;;;;;;;18.84;85.10;94244.31;1629881;87;21164;-55
2021/07/18 01:37:39;;;;;;;24.95;13.85;;;;;;;18.84;85.17;94250.54;1629960;86;21616;-56
2021/07/18 01:40:10;;;;;;;25.70;14.30;;;;;;;18.84;85.28;94254.72;1629641;86;21097;-55
2021/07/18 01:42:42;;;;;;;29.92;13.93;;;;;;;18.82;85.42;94253.83;1631206;88;21029;-55
2021/07/18 01:45:09;;;;;;;21.37;13.72;;;;;;;18.83;85.54;94252.55;1629286;87;21109;-57
2021/07/18 01:47:36;;;;;;;21.35;13.93;;;;;;;18.82;85.39;94248.91;1628732;87;21013;-56
2021/07/18 01:50:06;;;;;;;28.60;13.83;;;;;;;18.80;85.32;94253.58;1630091;87;21017;-55
2021/07/18 01:52:32;;;;;;;23.98;13.32;;;;;;;18.78;85.44;94251.95;1628570;86;21073;-55
2021/07/18 01:54:59;;;;;;;25.00;13.75;;;;;;;18.80;85.33;94246.61;1629422;87;21014;-56
2021/07/18 01:57:26;;;;;;;23.85;12.68;;;;;;;18.82;85.09;94254.47;1630478;87;21104;-55
2021/07/18 01:59:52;;;;;;;21.02;13.68;;;;;;;18.81;85.09;94259.93;1628908;87;21014;-54
2021/07/18 02:02:19;;;;;;;22.82;13.88;;;;;;;18.77;85.14;94255.23;1611471;87;21513;-56
2021/07/18 02:04:49;;;;;;;24.70;13.98;;;;;;;18.72;85.32;94254.00;1630261;88;21097;-57
2021/07/18 02:07:16;;;;;;;22.10;12.95;;;;;;;18.72;85.32;94249.82;1628375;87;21598;-55
2021/07/18 02:09:43;;;;;;;21.15;14.90;;;;;;;18.72;85.15;94247.66;1629127;87;21159;-55
2021/07/18 02:12:11;;;;;;;23.25;13.05;;;;;;;18.66;85.25;94248.31;1628455;87;21002;-57
2021/07/18 02:14:39;;;;;;;19.30;13.43;;;;;;;18.64;85.45;94248.07;1629313;87;21366;-55
2021/07/18 02:17:05;;;;;;;29.72;15.00;;;;;;;18.62;85.58;94256.93;1636527;85;21100;-54
2021/07/18 02:19:32;;;;;;;25.43;14.07;;;;;;;18.58;85.73;94252.25;1670940;84;21034;-55
2021/07/18 02:21:59;;;;;;;20.32;13.18;;;;;;;18.51;86.06;94259.76;1665154;85;21132;-55
2021/07/18 02:24:27;;;;;;;21.95;13.85;;;;;;;18.52;86.35;94257.09;1654516;85;21140;-56
2021/07/18 02:26:54;;;;;;;26.15;14.63;;;;;;;18.55;86.36;94253.28;1654606;86;21127;-55
2021/07/18 02:29:21;;;;;;;29.15;14.68;;;;;;;18.60;86.27;94253.90;1661534;85;21035;-55
2021/07/18 02:31:52;;;;;;;20.88;12.68;;;;;;;18.62;86.07;94249.96;1667822;85;20997;-55
2021/07/18 02:34:19;;;;;;;18.20;12.18;;;;;;;18.65;85.78;94254.51;1663025;85;21095;-56
2021/07/18 02:36:47;;;;;;;17.52;11.83;;;;;;;18.68;85.61;94256.27;1656725;85;21082;-55
2021/07/18 02:39:14;;;;;;;18.32;13.15;;;;;;;18.70;85.33;94249.58;1668806;85;20965;-55
2021/07/18 02:41:41;;;;;;;20.97;11.90;;;;;;;18.73;85.24;94256.91;1671870;85;21480;-54
2021/07/18 02:44:09;;;;;;;23.30;13.48;;;;;;;18.76;85.03;94256.50;1657963;85;22210;-55
2021/07/18 02:46:36;;;;;;;24.67;12.37;;;;;;;18.78;85.07;94260.92;1664563;85;21150;-55
2021/07/18 02:49:03;;;;;;;26.90;13.32;;;;;;;18.81;84.88;94257.14;1669728;85;21022;-55
2021/07/18 02:51:30;;;;;;;25.27;14.95;;;;;;;18.79;84.89;94256.25;1664848;85;21073;-56
2021/07/18 02:53:57;;;;;;;23.35;14.25;;;;;;;18.76;85.00;94254.48;1660764;85;21073;-56
2021/07/18 02:56:24;;;;;;;30.25;15.55;;;;;;;18.71;84.95;94256.66;1659399;85;20981;-55
2021/07/18 02:58:51;;;;;;;26.50;15.32;;;;;;;18.64;85.14;94250.86;1669245;84;21255;-57
2021/07/18 03:01:19;;;;;;;29.67;15.55;;;;;;;18.62;85.21;94258.97;1665027;85;21342;-56
2021/07/18 03:03:47;;;;;;;27.13;16.93;;;;;;;18.60;85.24;94257.30;1663121;84;21541;-57
2021/07/18 03:06:15;;;;;;;26.70;16.10;;;;;;;18.55;85.51;94260.25;1657543;85;21069;-55
2021/07/18 03:08:42;;;;;;;32.58;18.00;;;;;;;18.53;85.82;94258.61;1667495;85;21105;-55
2021/07/18 03:11:09;;;;;;;25.62;17.20;;;;;;;18.55;85.81;94258.08;1664166;84;21828;-56
2021/07/18 03:13:37;;;;;;;24.47;14.45;;;;;;;18.52;85.85;94252.14;1671776;85;21127;-55
2021/07/18 03:16:05;;;;;;;27.80;14.78;;;;;;;18.50;85.87;94254.03;1672807;85;21034;-56
2021/07/18 03:18:32;;;;;;;24.15;14.25;;;;;;;18.45;86.03;94252.03;1637310;86;20990;-56
2021/07/18 03:20:58;;;;;;;25.52;14.30;;;;;;;18.49;86.15;94250.38;1668935;85;21127;-56
2021/07/18 03:23:25;;;;;;;22.55;14.13;;;;;;;18.53;86.08;94248.86;1661399;85;21107;-58
2021/07/18 03:25:51;;;;;;;31.68;16.82;;;;;;;18.57;85.94;94251.36;1658227;85;21536;-58
2021/07/18 03:28:18;;;;;;;17.17;14.38;;;;;;;18.57;85.80;94246.56;1659683;85;21111;-56
2021/07/18 03:30:45;;;;;;;23.18;14.90;;;;;;;18.56;85.75;94249.23;1674004;84;21620;-56
2021/07/18 03:33:12;;;;;;;22.50;14.40;;;;;;;18.55;85.70;94253.28;1666918;85;21474;-57
2021/07/18 03:35:38;;;;;;;23.32;16.17;;;;;;;18.56;85.74;94247.83;1635103;85;22012;-55
2021/07/18 03:38:05;;;;;;;23.22;13.38;;;;;;;18.58;85.77;94248.08;1672539;85;21072;-55
2021/07/18 03:40:32;;;;;;;21.90;14.18;;;;;;;18.61;85.55;94249.84;1661622;85;21451;-57
2021/07/18 03:42:59;;;;;;;28.15;13.43;;;;;;;18.60;85.60;94247.55;1671235;85;21113;-56
2021/07/18 03:45:25;;;;;;;22.32;13.38;;;;;;;18.64;85.71;94250.20;1661721;85;21066;-56
2021/07/18 03:47:52;;;;;;;21.40;13.38;;;;;;;18.71;85.46;94250.31;1672388;85;21733;-55
2021/07/18 03:50:19;;;;;;;23.45;13.85;;;;;;;18.76;85.38;94249.53;1637459;85;21010;-55
2021/07/18 03:52:47;;;;;;;26.00;13.55;;;;;;;18.81;85.38;94254.35;1666051;84;21116;-55
2021/07/18 03:55:14;;;;;;;22.40;13.05;;;;;;;18.83;85.15;94251.16;1664101;85;21061;-55
2021/07/18 03:57:42;;;;;;;17.25;12.78;;;;;;;18.81;85.12;94248.13;1660975;85;21176;-55
2021/07/18 04:00:10;;;;;;;21.07;12.25;;;;;;;18.79;85.51;94248.53;1669100;85;21884;-56
2021/07/18 04:02:37;;;;;;;20.02;13.38;;;;;;;18.83;85.53;94251.16;1673216;85;21022;-56
2021/07/18 04:05:05;;;;;;;22.25;15.18;;;;;;;18.87;85.52;94249.51;1656607;85;21073;-55
2021/07/18 04:07:35;;;;;;;28.15;17.60;;;;;;;18.92;85.46;94257.09;1657692;85;20995;-56
2021/07/18 04:10:05;;;;;;;23.87;15.50;;;;;;;18.96;85.33;94252.77;1663542;85;21106;-56
2021/07/18 04:12:33;;;;;;;24.20;16.02;;;;;;;19.04;85.07;94257.17;1666932;85;21265;-57
2021/07/18 04:15:00;;;;;;;20.92;14.23;;;;;;;19.08;85.01;94253.47;1673752;85;21512;-56
2021/07/18 04:17:26;;;;;;;22.30;14.55;;;;;;;19.11;84.83;94253.22;1670687;85;20996;-57
2021/07/18 04:19:53;;;;;;;26.60;16.17;;;;;;;19.16;84.70;94251.06;1664331;85;21073;-57
2021/07/18 04:22:20;;;;;;;24.75;14.35;;;;;;;19.21;84.24;94251.66;1638202;86;20982;-57
2021/07/18 04:24:48;;;;;;;24.98;14.07;;;;;;;19.23;83.82;94256.73;1669052;84;21042;-58
2021/07/18 04:27:15;;;;;;;19.57;11.57;;;;;;;19.24;83.40;94249.88;1660407;85;21514;-56
2021/07/18 04:29:41;;;;;;;18.95;12.33;;;;;;;19.27;83.05;94255.20;1666308;84;21001;-56
2021/07/18 04:32:09;;;;;;;22.87;12.78;;;;;;;19.26;82.69;94255.08;1668376;85;21063;-57
2021/07/18 04:34:35;;;;;;;21.45;13.32;;;;;;;19.28;82.59;94259.50;1665266;84;21064;-57
2021/07/18 04:37:04;;;;;;;18.70;12.63;;;;;;;19.31;82.42;94259.09;1670844;85;21145;-56
2021/07/18 04:39:31;;;;;;;26.48;12.33;;;;;;;19.38;82.11;94252.33;1669956;85;21455;-55
2021/07/18 04:41:59;;;;;;;21.25;13.08;;;;;;;19.45;81.52;94257.38;1671961;84;21064;-55
2021/07/18 04:44:25;;;;;;;18.98;12.43;;;;;;;19.49;81.20;94257.86;1639052;86;21060;-55
2021/07/18 04:46:56;;;;;;;17.95;12.73;;;;;;;19.52;80.90;94263.80;1666838;84;21085;-56
2021/07/18 04:49:25;;;;;;;24.75;13.70;;;;;;;19.59;80.79;94259.70;1660941;85;21179;-59
2021/07/18 04:51:53;;;;;;;19.42;12.85;;;;;;;19.67;80.73;94261.43;1660636;85;47900;-56
2021/07/18 04:54:21;;;;;;;20.45;13.72;;;;;;;19.77;80.75;94253.50;1648299;85;21081;-57
2021/07/18 04:56:51;;;;;;;14.45;11.60;;;;;;;19.85;80.61;94250.26;1654801;86;21017;-55
2021/07/18 04:59:20;;;;;;;17.82;12.30;;;;;;;19.93;80.03;94258.95;1655063;86;21042;-55
2021/07/18 05:01:47;;;;;;;22.42;12.00;;;;;;;20.00;79.61;94261.83;1659036;85;21149;-56
2021/07/18 05:04:14;;;;;;;19.92;11.33;;;;;;;20.05;79.24;94260.42;1616321;85;21529;-57
2021/07/18 05:06:42;;;;;;;20.70;12.20;;;;;;;20.05;78.90;94261.81;1666063;85;21061;-57
2021/07/18 05:09:09;;;;;;;23.92;12.28;;;;;;;20.07;78.79;94259.26;1661074;84;21053;-55
2021/07/18 05:11:38;;;;;;;19.35;11.63;;;;;;;20.11;78.83;94270.90;1654720;86;21038;-56
2021/07/18 05:14:04;;;;;;;17.98;13.48;;;;;;;20.19;78.71;94269.81;1655072;85;21176;-57
2021/07/18 05:16:31;;;;;;;16.05;10.60;;;;;;;20.27;78.59;94269.38;1669770;85;20974;-56
2021/07/18 05:18:58;;;;;;;17.35;11.00;;;;;;;20.38;78.37;94271.31;1655140;86;21030;-55
2021/07/18 05:21:24;;;;;;;19.52;11.40;;;;;;;20.46;77.93;94272.25;1655336;85;21006;-55
2021/07/18 05:23:51;;;;;;;18.40;11.97;;;;;;;20.53;77.56;94268.89;1664134;85;21116;-54
2021/07/18 05:26:18;;;;;;;18.82;12.10;;;;;;;20.58;77.31;94269.48;1659800;85;21844;-56
2021/07/18 05:28:45;;;;;;;15.68;11.75;;;;;;;20.65;77.05;94266.86;1673895;85;21540;-57
2021/07/18 05:31:12;;;;;;;24.87;12.03;;;;;;;20.74;76.49;94268.55;1663452;85;21104;-56
2021/07/18 05:33:40;;;;;;;20.77;12.33;;;;;;;20.78;76.02;94269.75;1657671;85;20990;-57
2021/07/18 05:36:10;;;;;;;13.98;10.82;;;;;;;20.80;75.75;94266.44;1657867;84;21017;-55
2021/07/18 05:38:38;;;;;;;17.27;11.05;;;;;;;20.82;75.50;94270.88;1655009;85;21219;-55
2021/07/18 05:41:05;;;;;;;23.75;11.55;;;;;;;20.86;75.35;94274.16;1635932;86;21026;-55
2021/07/18 05:43:32;;;;;;;25.27;11.88;;;;;;;20.91;75.28;94266.37;1673777;85;21485;-57
2021/07/18 05:45:59;;;;;;;17.00;12.37;;;;;;;20.96;75.27;94262.74;1638702;85;21546;-55
2021/07/18 05:48:26;;;;;;;25.60;12.00;;;;;;;21.02;75.20;94266.22;1669405;84;21057;-55
2021/07/18 05:50:53;;;;;;;22.65;13.35;;;;;;;21.09;75.14;94273.39;1668365;85;21956;-56
2021/07/18 05:53:20;;;;;;;15.98;11.65;;;;;;;21.22;74.98;94265.09;1670313;85;21080;-56
2021/07/18 05:55:46;;;;;;;19.65;12.60;;;;;;;21.35;74.31;94271.42;1659541;85;21169;-56
2021/07/18 05:58:13;;;;;;;23.57;12.25;;;;;;;21.44;74.12;94263.41;1654771;86;21248;-56
2021/07/18 06:00:42;;;;;;;24.07;11.25;;;;;;;21.49;73.78;94269.56;1673005;85;21021;-55
2021/07/18 06:03:08;;;;;;;16.62;10.88;;;;;;;21.55;73.51;94266.07;1670789;85;21132;-56
2021/07/18 06:05:35;;;;;;;16.60;11.43;;;;;;;21.65;73.24;94265.08;1673751;85;21044;-56
2021/07/18 06:08:04;;;;;;;13.30;9.83;;;;;;;21.73;72.80;94264.57;1667701;85;21029;-54
2021/07/18 06:10:30;;;;;;;20.12;11.55;;;;;;;21.85;72.60;94261.73;1667989;84;21102;-56
2021/07/18 06:12:57;;;;;;;17.70;9.90;;;;;;;21.98;72.12;94271.60;1659968;85;21094;-54
2021/07/18 06:15:25;;;;;;;18.20;10.68;;;;;;;22.09;71.70;94260.98;1670767;85;21131;-56
2021/07/18 06:17:52;;;;;;;26.70;11.97;;;;;;;22.24;71.06;94261.98;1667484;85;21010;-55
2021/07/18 06:20:20;;;;;;;19.00;10.23;;;;;;;22.36;70.79;94254.92;1670974;85;21040;-56
2021/07/18 06:22:48;;;;;;;19.02;10.45;;;;;;;22.49;70.19;94254.95;1666855;85;21533;-56
2021/07/18 06:25:15;;;;;;;17.62;10.93;;;;;;;22.62;69.71;94251.45;1654352;85;21085;-56
2021/07/18 06:27:43;;;;;;;16.85;10.53;;;;;;;22.70;69.27;94257.25;1669743;85;21186;-55
2021/07/18 06:30:11;;;;;;;21.73;10.25;;;;;;;22.75;69.12;94248.64;1667490;84;21400;-56
2021/07/18 06:32:38;;;;;;;26.40;11.00;;;;;;;22.82;68.90;94259.23;1668505;85;21183;-56
2021/07/18 06:35:07;;;;;;;28.12;11.05;;;;;;;22.91;68.75;94252.55;1636895;85;21085;-56
2021/07/18 06:37:34;;;;;;;15.15;10.50;;;;;;;23.00;68.32;94250.70;1659919;84;20993;-56
2021/07/18 06:40:04;;;;;;;14.68;9.38;;;;;;;23.09;67.86;94246.70;1674132;84;21285;-56
2021/07/18 06:42:33;;;;;;;14.13;9.15;;;;;;;23.15;67.78;94240.36;1670839;85;21514;-55
2021/07/18 06:44:59;;;;;;;18.40;9.88;;;;;;;23.17;67.30;94238.53;1657780;85;21102;-56
2021/07/18 06:47:29;;;;;;;15.72;11.00;;;;;;;23.23;66.90;94232.14;1654662;86;21097;-56
2021/07/18 06:49:57;;;;;;;21.35;10.88;;;;;;;23.32;66.88;94236.56;1668186;85;20983;-54
2021/07/18 06:52:27;;;;;;;15.30;10.28;;;;;;;23.43;66.69;94241.95;1660260;85;21084;-55
2021/07/18 06:54:55;;;;;;;22.30;10.43;;;;;;;23.54;66.45;94236.86;1670583;85;21150;-57
2021/07/18 06:57:23;;;;;;;17.77;10.48;;;;;;;23.70;66.00;94238.55;1664261;85;21864;-56
2021/07/18 06:59:50;;;;;;;16.93;10.75;;;;;;;23.84;65.72;94227.41;1665623;85;21514;-55
2021/07/18 07:02:16;;;;;;;16.37;10.90;;;;;;;24.01;65.71;94228.52;1654724;86;21139;-56
2021/07/18 07:04:43;;;;;;;13.43;9.05;;;;;;;24.18;65.49;94221.11;1670246;85;21132;-56
2021/07/18 07:07:12;;;;;;;20.10;10.80;;;;;;;24.31;65.22;94216.80;1657567;85;21086;-56
2021/07/18 07:09:39;;;;;;;19.15;10.23;;;;;;;24.42;64.29;94216.53;1658543;85;21027;-56
2021/07/18 07:12:08;;;;;;;16.25;10.48;;;;;;;24.55;63.51;94223.53;1670499;84;21126;-56
2021/07/18 07:14:34;;;;;;;25.60;10.70;;;;;;;24.62;63.06;94220.77;1663024;85;20987;-55
2021/07/18 07:17:01;;;;;;;21.12;10.43;;;;;;;24.70;63.17;94224.39;1664844;85;21827;-56
2021/07/18 07:19:27;;;;;;;21.33;10.10;;;;;;;24.80;62.93;94228.86;1673911;85;21029;-56
2021/07/18 07:21:54;;;;;;;19.98;10.23;;;;;;;24.88;62.15;94224.03;1665005;85;21136;-56
2021/07/18 07:24:20;;;;;;;16.65;12.53;;;;;;;24.96;61.74;94224.84;1655139;85;21076;-58
2021/07/18 07:26:47;;;;;;;21.62;11.10;;;;;;;25.06;61.77;94216.75;1671755;85;21053;-58
2021/07/18 07:29:14;;;;;;;15.08;10.30;;;;;;;25.25;61.88;94221.48;1657608;85;21106;-59
2021/07/18 07:31:41;;;;;;;17.02;10.32;;;;;;;25.43;61.38;94222.50;1661259;85;21042;-56
2021/07/18 07:34:08;;;;;;;19.07;10.08;;;;;;;25.59;60.52;94217.03;1663763;85;21069;-56
2021/07/18 07:36:34;;;;;;;24.40;10.60;;;;;;;25.72;59.68;94216.91;1664072;85;21494;-57
2021/07/18 07:39:02;;;;;;;17.07;9.93;;;;;;;25.86;59.43;94222.53;1657618;85;21505;-57
2021/07/18 07:41:30;;;;;;;15.88;9.45;;;;;;;25.99;58.89;94214.02;1665471;85;21137;-55
2021/07/18 07:43:59;;;;;;;19.50;9.75;;;;;;;26.12;58.35;94213.84;1670742;85;21025;-57
2021/07/18 07:46:26;;;;;;;12.70;9.48;;;;;;;26.25;57.97;94210.86;1661888;85;20994;-56
2021/07/18 07:48:53;;;;;;;16.65;9.98;;;;;;;26.35;57.48;94213.88;1654465;86;21624;-56
2021/07/18 07:51:20;;;;;;;13.95;10.30;;;;;;;26.44;57.07;94212.66;1674255;85;21025;-56
2021/07/18 07:53:47;;;;;;;15.65;9.95;;;;;;;26.57;57.37;94208.28;1663237;84;21454;-57
2021/07/18 07:56:14;;;;;;;15.23;10.20;;;;;;;26.73;57.55;94208.37;1666971;85;21006;-56
2021/07/18 07:58:42;;;;;;;19.75;9.30;;;;;;;26.86;57.50;94211.66;1658632;84;21026;-57
2021/07/18 08:01:11;;;;;;;25.27;10.38;;;;;;;26.96;57.38;94211.92;1665370;85;21057;-58
2021/07/18 08:03:38;;;;;;;13.93;10.53;;;;;;;27.06;57.12;94208.59;1659898;85;21590;-55
2021/07/18 08:06:04;;;;;;;17.70;10.88;;;;;;;27.18;57.10;94212.56;1671095;85;21786;-56
2021/07/18 08:08:31;;;;;;;17.17;9.65;;;;;;;27.32;56.91;94204.62;1667522;85;21021;-57
2021/07/18 08:10:59;;;;;;;16.02;10.30;;;;;;;27.43;56.81;94202.80;1674017;85;21026;-56
2021/07/18 08:13:26;;;;;;;14.20;9.63;;;;;;;27.56;56.99;94199.08;1636523;85;21258;-56
2021/07/18 08:15:53;;;;;;;14.53;9.83;;;;;;;27.71;56.34;94207.53;1654714;85;21152;-55
2021/07/18 08:18:20;;;;;;;17.92;9.63;;;;;;;27.81;55.73;94198.52;1662522;84;21266;-57
2021/07/18 08:20:46;;;;;;;15.08;9.70;;;;;;;27.88;55.50;94209.05;1656909;84;21069;-56
2021/07/18 08:23:13;;;;;;;19.52;10.23;;;;;;;27.95;55.03;94203.36;1667567;85;21128;-56
2021/07/18 08:25:42;;;;;;;15.20;9.20;;;;;;;28.03;55.37;94200.49;1653329;85;21431;-56
2021/07/18 08:28:09;;;;;;;17.62;9.83;;;;;;;28.18;56.20;94192.66;1664151;84;21125;-56
2021/07/18 08:30:37;;;;;;;12.82;9.53;;;;;;;28.39;55.42;94193.78;1661351;85;21057;-56
2021/07/18 08:33:07;;;;;;;14.07;9.80;;;;;;;28.56;55.70;94190.33;1669018;85;21120;-56
2021/07/18 08:35:33;;;;;;;13.05;8.15;;;;;;;28.73;54.26;94192.48;1668162;85;21035;-56
2021/07/18 08:38:00;;;;;;;15.30;8.95;;;;;;;28.80;53.71;94184.57;1654891;86;21030;-55
2021/07/18 08:40:27;;;;;;;14.30;10.65;;;;;;;28.79;54.22;94187.32;1664530;85;21597;-57
2021/07/18 08:42:54;;;;;;;13.70;9.88;;;;;;;28.73;54.29;94180.47;1656422;85;21129;-57
2021/07/18 08:45:22;;;;;;;15.20;9.03;;;;;;;28.70;54.28;94189.37;1665601;84;21029;-56
2021/07/18 08:47:50;;;;;;;14.10;8.73;;;;;;;28.75;53.79;94186.98;1657877;85;21046;-57
2021/07/18 08:50:17;;;;;;;13.18;9.73;;;;;;;28.83;53.69;94187.66;1667638;84;21081;-56
2021/07/18 08:52:52;;;;;;;14.07;8.80;;;;;;;28.93;53.83;94185.03;1654619;86;21463;-56
2021/07/18 08:55:19;;;;;;;14.15;9.73;;;;;;;29.13;54.07;94186.73;1664039;85;21906;-57
2021/07/18 08:57:47;;;;;;;14.50;8.88;;;;;;;29.33;52.07;94177.06;1669588;85;21518;-56
2021/07/18 09:00:15;;;;;;;15.80;9.43;;;;;;;29.38;51.37;94183.82;1668747;85;21093;-59
2021/07/18 09:02:42;;;;;;;16.80;9.23;;;;;;;29.32;51.58;94179.08;1659266;85;21116;-57
2021/07/18 09:05:10;;;;;;;13.08;9.35;;;;;;;29.25;50.84;94175.64;1673948;84;21551;-57
2021/07/18 09:07:55;;;;;;;13.22;9.78;;;;;;;29.23;51.21;94176.24;1667194;85;21136;-57
2021/07/18 09:10:27;;;;;;;17.37;10.13;;;;;;;29.26;52.20;94177.14;1670659;84;21108;-58
2021/07/18 09:13:05;;;;;;;11.45;9.23;;;;;;;29.34;52.27;94176.41;1663061;85;21006;-57
2021/07/18 09:15:53;;;;;;;12.95;9.15;;;;;;;29.47;51.97;94171.17;1668727;85;21640;-56
2021/07/18 09:18:25;;;;;;;14.18;9.40;;;;;;;29.61;51.62;94170.92;1667998;85;21080;-56
2021/07/18 09:20:55;;;;;;;16.70;9.40;;;;;;;29.62;50.92;94168.16;1665573;85;21211;-57
2021/07/18 09:23:30;;;;;;;16.12;8.68;;;;;;;29.52;50.66;94166.59;1662757;85;21406;-57
2021/07/18 09:26:24;;;;;;;19.75;8.95;;;;;;;29.54;51.42;94161.81;1657590;84;21546;-56
2021/07/18 09:28:51;;;;;;;13.75;9.10;;;;;;;29.69;50.61;94165.16;1658691;84;21546;-56
2021/07/18 09:31:29;;;;;;;13.38;9.05;;;;;;;29.88;49.80;94163.18;1665924;85;21041;-56
2021/07/18 09:34:19;;;;;;;17.07;9.30;;;;;;;29.96;48.78;94161.74;1654477;86;21203;-57
2021/07/18 09:36:47;;;;;;;9.95;8.58;;;;;;;30.01;48.53;94160.75;1646546;86;21039;-56
2021/07/18 09:39:14;;;;;;;13.85;8.95;;;;;;;30.16;49.45;94157.70;1604629;87;21053;-56
2021/07/18 09:41:44;;;;;;;10.43;8.63;;;;;;;30.38;48.77;94157.28;1630474;87;21307;-57
2021/07/18 09:44:11;;;;;;;12.10;8.58;;;;;;;30.59;47.84;94155.47;1631574;87;21002;-57
2021/07/18 09:46:38;;;;;;;10.38;8.75;;;;;;;30.67;46.53;94156.08;1597452;87;21177;-57
2021/07/18 09:49:05;;;;;;;13.18;9.18;;;;;;;30.59;47.08;94159.73;1629531;86;21060;-57
2021/07/18 09:51:33;;;;;;;15.35;8.68;;;;;;;30.47;47.40;94156.59;1631493;86;20986;-57
2021/07/18 09:54:11;;;;;;;15.88;9.03;;;;;;;30.34;47.36;94148.46;1632318;88;21612;-57
2021/07/18 09:56:40;;;;;;;20.88;10.10;;;;;;;30.21;47.28;94153.09;1631176;86;21058;-58
2021/07/18 09:59:07;;;;;;;20.50;8.85;;;;;;;30.05;47.93;94152.58;1630485;86;21494;-56
2021/07/18 10:01:35;;;;;;;17.92;9.43;;;;;;;30.11;48.65;94153.73;1631375;87;21080;-56
2021/07/18 10:04:02;;;;;;;17.92;9.70;;;;;;;30.26;49.06;94146.39;1630059;87;21141;-58
2021/07/18 10:06:33;;;;;;;11.48;8.35;;;;;;;30.37;47.25;94146.62;1631048;86;21005;-56
2021/07/18 10:09:09;;;;;;;11.05;8.58;;;;;;;30.47;47.55;94144.55;1630083;86;21275;-57
2021/07/18 10:11:32;;;;;;;11.25;8.08;;;;;;;30.67;46.00;94144.72;1604767;87;21387;-59
2021/07/18 10:14:00;;;;;;;15.32;8.15;;;;;;;30.94;46.07;94142.56;1632214;87;21548;-56
2021/07/18 10:16:29;;;;;;;13.58;8.55;;;;;;;31.17;45.14;94140.07;1631780;87;21073;-57
2021/07/18 10:18:57;;;;;;;14.20;7.28;;;;;;;31.42;44.57;94140.52;1631126;88;22057;-55
2021/07/18 10:21:29;;;;;;;13.13;8.73;;;;;;;31.59;42.52;94138.95;1631381;87;21454;-56
2021/07/18 10:23:57;;;;;;;13.72;8.98;;;;;;;31.71;42.78;94141.95;1630822;86;21133;-56
2021/07/18 10:26:27;;;;;;;12.33;6.83;;;;;;;31.90;43.46;94141.27;1629875;87;21442;-56
2021/07/18 10:28:55;;;;;;;20.27;9.30;;;;;;;32.18;43.13;94141.89;1630621;86;20982;-59
2021/07/18 10:31:38;;;;;;;11.00;8.48;;;;;;;32.46;43.58;94139.64;1629397;87;20994;-57
2021/07/18 10:34:06;;;;;;;14.40;7.95;;;;;;;32.64;42.55;94145.18;1628398;87;21079;-55
2021/07/18 10:36:35;;;;;;;11.28;7.83;;;;;;;32.80;42.31;94145.64;1629841;87;21145;-58
2021/07/18 10:39:26;;;;;;;16.75;8.53;;;;;;;32.78;41.07;94139.08;1629250;87;20974;-57
2021/07/18 10:41:53;;;;;;;12.43;8.58;;;;;;;32.55;40.70;94133.14;1629045;86;21080;-56
2021/07/18 10:44:20;;;;;;;10.72;7.42;;;;;;;32.21;41.37;94131.48;1651243;85;21504;-59
2021/07/18 10:46:56;;;;;;;13.43;9.08;;;;;;;32.07;41.54;94129.01;1652482;85;21013;-56
2021/07/18 10:49:55;;;;;;;14.60;7.95;;;;;;;32.19;41.89;94133.45;1629295;87;21139;-57
2021/07/18 10:52:29;;;;;;;14.23;10.35;;;;;;;32.50;42.59;94127.86;1629216;86;21167;-58
2021/07/18 10:54:56;;;;;;;9.63;7.20;;;;;;;32.94;40.65;94123.08;1623209;86;21084;-57
2021/07/18 10:57:32;;;;;;;9.05;7.28;;;;;;;33.34;40.66;94118.70;1630081;88;20978;-57
2021/07/18 11:00:22;;;;;;;12.13;7.70;;;;;;;33.69;39.08;94111.05;1628894;87;21522;-58
2021/07/18 11:03:12;;;;;;;14.33;7.08;;;;;;;33.94;38.22;94111.34;1610946;88;21073;-58
2021/07/18 11:05:42;;;;;;;11.22;7.15;;;;;;;34.30;37.51;94115.11;1626877;87;21005;-57
2021/07/18 11:08:11;;;;;;;12.43;7.78;;;;;;;34.63;37.40;94112.14;1630633;86;21668;-57
2021/07/18 11:10:50;;;;;;;9.40;6.58;;;;;;;34.37;37.24;94108.39;1628758;86;21201;-57
2021/07/18 11:13:16;;;;;;;10.58;7.15;;;;;;;33.93;36.66;94110.55;1628250;86;21105;-58
2021/07/18 11:15:45;;;;;;;11.28;7.10;;;;;;;33.49;37.59;94107.60;1606880;88;21059;-58
2021/07/18 11:18:17;;;;;;;7.40;6.15;;;;;;;33.37;38.20;94107.48;1629895;87;21141;-56
2021/07/18 11:20:54;;;;;;;8.10;6.67;;;;;;;33.60;38.25;94097.59;1631148;88;21125;-56
2021/07/18 11:23:38;;;;;;;8.08;6.78;;;;;;;34.11;36.66;94106.72;1629007;87;21080;-56
2021/07/18 11:26:09;;;;;;;12.00;6.72;;;;;;;34.64;35.69;94096.48;1628895;86;21063;-57